Time;durP1;ratioP1;P1;durP2;ratioP2;P2;SDS_P1;SDS_P2;PMS_P1;PMS_P2;Temp;Humidity;BMP_temperature;BMP_pressure;BME280_temperature;BME280_humidity;BME280_pressure;Samples;Min_cycle;Max_cycle;Signal;HPM_P1;HPM_P2
2023/03/05 00:00:46;;;;;;;;;;;;;;;;;;5072396;28;19932;-68
2023/03/05 00:03:12;;;;;;;;;;;;;;;;;;5073054;28;20091;-68
2023/03/05 00:05:38;;;;;;;;;;;;;;;;;;5073874;28;19955;-67
2023/03/05 00:08:04;;;;;;;;;;;;;;;;;;5072510;28;19909;-68
2023/03/05 00:10:30;;;;;;;;;;;;;;;;;;5072051;28;19915;-68
2023/03/05 00:12:56;;;;;;;;;;;;;;;;;;5073652;28;19923;-68
2023/03/05 00:15:22;;;;;;;;;;;;;;;;;;5073681;28;19909;-68
2023/03/05 00:17:48;;;;;;;;;;;;;;;;;;5073370;28;20011;-68
2023/03/05 00:20:13;;;;;;;;;;;;;;;;;;5073566;28;19908;-68
2023/03/05 00:22:39;;;;;;;;;;;;;;;;;;5073574;28;19954;-67
2023/03/05 00:25:05;;;;;;;;;;;;;;;;;;5073107;28;19948;-68
2023/03/05 00:27:31;;;;;;;;;;;;;;;;;;5073499;28;19915;-68
2023/03/05 00:29:57;;;;;;;;;;;;;;;;;;5072263;28;19919;-68
2023/03/05 00:32:23;;;;;;;;;;;;;;;;;;5072950;28;19920;-68
2023/03/05 00:34:49;;;;;;;;;;;;;;;;;;5074040;28;19915;-68
2023/03/05 00:37:15;;;;;;;;;;;;;;;;;;5073421;28;19908;-67
2023/03/05 00:39:41;;;;;;;;;;;;;;;;;;5073028;28;19909;-68
2023/03/05 00:42:07;;;;;;;;;;;;;;;;;;5073741;28;19963;-68
2023/03/05 00:44:33;;;;;;;;;;;;;;;;;;5073311;28;19963;-68
2023/03/05 00:46:59;;;;;;;;;;;;;;;;;;5073445;28;19944;-68
2023/03/05 00:49:25;;;;;;;;;;;;;;;;;;5073391;28;19912;-68
2023/03/05 00:51:51;;;;;;;;;;;;;;;;;;5072851;28;19959;-67
2023/03/05 00:54:17;;;;;;;;;;;;;;;;;;5073223;28;19913;-67
2023/03/05 00:56:43;;;;;;;;;;;;;;;;;;5073301;28;20015;-68
2023/03/05 00:59:09;;;;;;;;;;;;;;;;;;5073003;28;19948;-68
2023/03/05 01:01:35;;;;;;;;;;;;;;;;;;5073282;28;20280;-68
2023/03/05 01:04:01;;;;;;;;;;;;;;;;;;5073254;28;20033;-68
2023/03/05 01:06:28;;;;;;;;;;;;;;;;;;5071839;28;19920;-68
2023/03/05 01:08:55;;;;;;;;;;;;;;;;;;5073459;28;19932;-67
2023/03/05 01:11:21;;;;;;;;;;;;;;;;;;5073330;28;20005;-67
2023/03/05 01:13:47;;;;;;;;;;;;;;;;;;5072701;28;19978;-68
2023/03/05 01:16:13;;;;;;;;;;;;;;;;;;5076083;28;19916;-67
2023/03/05 01:18:39;;;;;;;;;;;;;;;;;;5076618;28;19916;-67
2023/03/05 01:21:05;;;;;;;;;;;;;;;;;;5076193;28;19948;-68
2023/03/05 01:23:33;;;;;;;;;;;;;;;;;;5076470;28;19909;-68
2023/03/05 01:25:59;;;;;;;;;;;;;;;;;;5075240;28;19909;-68
2023/03/05 01:28:25;;;;;;;;;;;;;;;;;;5074782;28;19954;-68
2023/03/05 01:30:50;;;;;;;;;;;;;;;;;;5075309;28;19908;-68
2023/03/05 01:33:16;;;;;;;;;;;;;;;;;;5076886;28;20261;-68
2023/03/05 01:35:42;;;;;;;;;;;;;;;;;;5075843;28;20288;-68
2023/03/05 01:38:08;;;;;;;;;;;;;;;;;;5076292;28;20284;-68
2023/03/05 01:40:34;;;;;;;;;;;;;;;;;;5076444;28;19909;-67
2023/03/05 01:43:00;;;;;;;;;;;;;;;;;;5076434;28;19916;-67
2023/03/05 01:45:26;;;;;;;;;;;;;;;;;;5076302;28;19995;-68
2023/03/05 01:47:52;;;;;;;;;;;;;;;;;;5074344;28;19915;-68
2023/03/05 01:50:18;;;;;;;;;;;;;;;;;;5076230;28;19988;-67
2023/03/05 01:52:44;;;;;;;;;;;;;;;;;;5075964;28;19917;-67
2023/03/05 01:55:10;;;;;;;;;;;;;;;;;;5075488;28;20000;-68
2023/03/05 01:57:36;;;;;;;;;;;;;;;;;;5074638;28;19916;-68
2023/03/05 02:00:02;;;;;;;;;;;;;;;;;;5074934;28;19912;-68
2023/03/05 02:02:28;;;;;;;;;;;;;;;;;;5074113;28;19908;-67
2023/03/05 02:04:54;;;;;;;;;;;;;;;;;;5075873;28;19908;-67
2023/03/05 02:07:20;;;;;;;;;;;;;;;;;;5075724;28;19909;-68
2023/03/05 02:09:46;;;;;;;;;;;;;;;;;;5074013;28;19908;-68
2023/03/05 02:12:12;;;;;;;;;;;;;;;;;;5075839;28;19970;-68
2023/03/05 02:14:38;;;;;;;;;;;;;;;;;;5075848;28;19908;-67
2023/03/05 02:17:04;;;;;;;;;;;;;;;;;;5075258;28;19909;-67
2023/03/05 02:19:30;;;;;;;;;;;;;;;;;;5075366;28;19916;-67
2023/03/05 02:21:56;;;;;;;;;;;;;;;;;;5075462;28;19931;-67
2023/03/05 02:24:22;;;;;;;;;;;;;;;;;;5075062;28;19908;-67
2023/03/05 02:26:48;;;;;;;;;;;;;;;;;;5075439;28;19916;-68
2023/03/05 02:29:14;;;;;;;;;;;;;;;;;;5075298;28;19908;-68
2023/03/05 02:31:40;;;;;;;;;;;;;;;;;;5074833;28;19955;-68
2023/03/05 02:34:06;;;;;;;;;;;;;;;;;;5074160;28;19916;-68
2023/03/05 02:36:32;;;;;;;;;;;;;;;;;;5075089;28;19909;-68
2023/03/05 02:38:58;;;;;;;;;;;;;;;;;;5074726;28;19915;-68
2023/03/05 02:41:24;;;;;;;;;;;;;;;;;;5075089;28;19908;-67
2023/03/05 02:43:50;;;;;;;;;;;;;;;;;;5075282;28;19915;-68
2023/03/05 02:46:16;;;;;;;;;;;;;;;;;;5074491;28;19909;-68
2023/03/05 02:48:42;;;;;;;;;;;;;;;;;;5074876;28;19916;-68
2023/03/05 02:51:08;;;;;;;;;;;;;;;;;;5072988;28;20455;-68
2023/03/05 02:53:34;;;;;;;;;;;;;;;;;;5074811;28;20312;-67
2023/03/05 02:56:00;;;;;;;;;;;;;;;;;;5074771;28;20268;-68
2023/03/05 02:58:26;;;;;;;;;;;;;;;;;;5074318;28;19908;-68
2023/03/05 03:00:52;;;;;;;;;;;;;;;;;;5074758;28;20363;-68
2023/03/05 03:03:18;;;;;;;;;;;;;;;;;;5073353;28;20261;-68
2023/03/05 03:05:44;;;;;;;;;;;;;;;;;;5072904;28;20332;-68
2023/03/05 03:08:10;;;;;;;;;;;;;;;;;;5073256;28;19912;-68
2023/03/05 03:10:36;;;;;;;;;;;;;;;;;;5075011;28;19908;-68
2023/03/05 03:13:02;;;;;;;;;;;;;;;;;;5072660;28;19923;-68
2023/03/05 03:15:28;;;;;;;;;;;;;;;;;;5074397;28;19908;-68
2023/03/05 03:17:54;;;;;;;;;;;;;;;;;;5074600;28;19947;-68
2023/03/05 03:20:19;;;;;;;;;;;;;;;;;;5073903;28;19909;-68
2023/03/05 03:22:45;;;;;;;;;;;;;;;;;;5074288;28;19995;-67
2023/03/05 03:25:11;;;;;;;;;;;;;;;;;;5074648;28;19916;-68
2023/03/05 03:27:37;;;;;;;;;;;;;;;;;;5073760;28;20276;-68
2023/03/05 03:30:03;;;;;;;;;;;;;;;;;;5074788;28;20456;-68
2023/03/05 03:32:29;;;;;;;;;;;;;;;;;;5072822;28;20265;-68
2023/03/05 03:34:55;;;;;;;;;;;;;;;;;;5073783;28;19915;-68
2023/03/05 03:37:21;;;;;;;;;;;;;;;;;;5073583;28;20335;-68
2023/03/05 03:39:47;;;;;;;;;;;;;;;;;;5074360;28;19912;-68
2023/03/05 03:42:13;;;;;;;;;;;;;;;;;;5072367;28;19908;-68
2023/03/05 03:44:39;;;;;;;;;;;;;;;;;;5074034;28;19915;-68
2023/03/05 03:47:05;;;;;;;;;;;;;;;;;;5074467;28;19943;-68
2023/03/05 03:49:31;;;;;;;;;;;;;;;;;;5073335;28;20352;-68
2023/03/05 03:51:57;;;;;;;;;;;;;;;;;;5072885;28;20410;-68
2023/03/05 03:54:23;;;;;;;;;;;;;;;;;;5073809;28;19908;-68
2023/03/05 03:56:49;;;;;;;;;;;;;;;;;;5072892;28;20352;-68
2023/03/05 03:59:15;;;;;;;;;;;;;;;;;;5073996;28;20391;-68
2023/03/05 04:01:41;;;;;;;;;;;;;;;;;;5073882;28;20458;-68
2023/03/05 04:04:07;;;;;;;;;;;;;;;;;;5074381;28;20367;-67
2023/03/05 04:06:33;;;;;;;;;;;;;;;;;;5073869;28;19908;-68
2023/03/05 04:08:59;;;;;;;;;;;;;;;;;;5072070;28;19908;-68
2023/03/05 04:11:25;;;;;;;;;;;;;;;;;;5072389;28;19923;-67
2023/03/05 04:13:51;;;;;;;;;;;;;;;;;;5072368;28;19908;-68
2023/03/05 04:16:18;;;;;;;;;;;;;;;;;;5073254;28;19919;-67
2023/03/05 04:18:44;;;;;;;;;;;;;;;;;;5073945;28;19995;-67
2023/03/05 04:21:10;;;;;;;;;;;;;;;;;;5073914;28;19948;-67
2023/03/05 04:23:35;;;;;;;;;;;;;;;;;;5071911;28;19964;-67
2023/03/05 04:26:01;;;;;;;;;;;;;;;;;;5073557;28;19934;-67
2023/03/05 04:28:27;;;;;;;;;;;;;;;;;;5073588;28;19996;-67
2023/03/05 04:30:53;;;;;;;;;;;;;;;;;;5073069;28;19916;-67
2023/03/05 04:33:19;;;;;;;;;;;;;;;;;;5072224;28;20276;-67
2023/03/05 04:35:45;;;;;;;;;;;;;;;;;;5072228;28;19908;-67
2023/03/05 04:38:11;;;;;;;;;;;;;;;;;;5073035;28;19908;-67
2023/03/05 04:40:37;;;;;;;;;;;;;;;;;;5073509;28;19913;-67
2023/03/05 04:43:03;;;;;;;;;;;;;;;;;;5073768;28;19913;-67
2023/03/05 04:45:29;;;;;;;;;;;;;;;;;;5073089;28;20201;-68
2023/03/05 04:47:55;;;;;;;;;;;;;;;;;;5072093;28;19908;-68
2023/03/05 04:50:21;;;;;;;;;;;;;;;;;;5073494;28;19920;-68
2023/03/05 04:52:47;;;;;;;;;;;;;;;;;;5076720;28;19921;-68
2023/03/05 04:55:13;;;;;;;;;;;;;;;;;;5077075;28;19954;-68
2023/03/05 04:57:39;;;;;;;;;;;;;;;;;;5075389;28;19977;-68
2023/03/05 05:00:06;;;;;;;;;;;;;;;;;;5076935;28;20368;-68
2023/03/05 05:02:32;;;;;;;;;;;;;;;;;;5077210;28;20270;-68
2023/03/05 05:04:57;;;;;;;;;;;;;;;;;;5076983;28;19908;-68
2023/03/05 05:07:23;;;;;;;;;;;;;;;;;;5076867;28;19909;-68
2023/03/05 05:09:49;;;;;;;;;;;;;;;;;;5076861;28;20053;-68
2023/03/05 05:12:15;;;;;;;;;;;;;;;;;;5074994;28;19917;-68
2023/03/05 05:14:41;;;;;;;;;;;;;;;;;;5076736;28;19908;-68
2023/03/05 05:17:07;;;;;;;;;;;;;;;;;;5077232;28;19913;-68
2023/03/05 05:19:33;;;;;;;;;;;;;;;;;;5076241;28;19969;-68
2023/03/05 05:21:59;;;;;;;;;;;;;;;;;;5076648;28;20284;-68
2023/03/05 05:24:25;;;;;;;;;;;;;;;;;;5076525;28;19916;-68
2023/03/05 05:26:51;;;;;;;;;;;;;;;;;;5076014;28;19995;-68
2023/03/05 05:29:17;;;;;;;;;;;;;;;;;;5075193;28;19912;-68
2023/03/05 05:31:43;;;;;;;;;;;;;;;;;;5076421;28;19930;-67
2023/03/05 05:34:09;;;;;;;;;;;;;;;;;;5074832;28;19997;-68
2023/03/05 05:36:35;;;;;;;;;;;;;;;;;;5076472;28;19955;-67
2023/03/05 05:39:01;;;;;;;;;;;;;;;;;;5076579;28;19909;-68
2023/03/05 05:41:27;;;;;;;;;;;;;;;;;;5074668;28;19954;-68
2023/03/05 05:43:53;;;;;;;;;;;;;;;;;;5074852;28;20284;-68
2023/03/05 05:46:19;;;;;;;;;;;;;;;;;;5074849;28;19916;-68
2023/03/05 05:48:45;;;;;;;;;;;;;;;;;;5074476;28;19908;-68
2023/03/05 05:51:11;;;;;;;;;;;;;;;;;;5075921;28;19956;-67
2023/03/05 05:53:37;;;;;;;;;;;;;;;;;;5074697;28;19943;-67
2023/03/05 05:56:03;;;;;;;;;;;;;;;;;;5074333;28;19908;-67
2023/03/05 05:58:29;;;;;;;;;;;;;;;;;;5075996;28;19944;-67
2023/03/05 06:00:55;;;;;;;;;;;;;;;;;;5075119;28;19934;-68
2023/03/05 06:03:20;;;;;;;;;;;;;;;;;;5076105;28;19916;-67
2023/03/05 06:05:46;;;;;;;;;;;;;;;;;;5075720;28;19924;-67
2023/03/05 06:08:12;;;;;;;;;;;;;;;;;;5075277;28;20291;-67
2023/03/05 06:10:38;;;;;;;;;;;;;;;;;;5076005;28;19915;-67
2023/03/05 06:13:04;;;;;;;;;;;;;;;;;;5074265;28;19917;-67
2023/03/05 06:15:30;;;;;;;;;;;;;;;;;;5075223;28;19909;-67
2023/03/05 06:17:56;;;;;;;;;;;;;;;;;;5076138;28;19915;-67
2023/03/05 06:20:22;;;;;;;;;;;;;;;;;;5075516;28;19908;-67
2023/03/05 06:22:48;;;;;;;;;;;;;;;;;;5073835;28;20378;-67
2023/03/05 06:25:14;;;;;;;;;;;;;;;;;;5075509;28;19909;-69
2023/03/05 06:27:40;;;;;;;;;;;;;;;;;;5074057;28;19909;-68
2023/03/05 06:30:06;;;;;;;;;;;;;;;;;;5074878;28;19908;-67
2023/03/05 06:32:32;;;;;;;;;;;;;;;;;;5075476;28;19956;-68
2023/03/05 06:34:58;;;;;;;;;;;;;;;;;;5073890;28;20287;-68
2023/03/05 06:37:24;;;;;;;;;;;;;;;;;;5074749;28;20276;-68
2023/03/05 06:39:50;;;;;;;;;;;;;;;;;;5075126;28;19912;-67
2023/03/05 06:42:18;;;;;;;;;;;;;;;;;;5075030;28;19948;-67
2023/03/05 06:44:44;;;;;;;;;;;;;;;;;;5074563;28;19908;-67
2023/03/05 06:47:10;;;;;;;;;;;;;;;;;;5074919;28;19915;-67
2023/03/05 06:49:35;;;;;;;;;;;;;;;;;;5073428;28;19912;-67
2023/03/05 06:52:02;;;;;;;;;;;;;;;;;;5073148;28;19916;-68
2023/03/05 06:54:28;;;;;;;;;;;;;;;;;;5074744;28;19908;-67
2023/03/05 06:56:54;;;;;;;;;;;;;;;;;;5074756;28;20264;-68
2023/03/05 06:59:20;;;;;;;;;;;;;;;;;;5074312;28;19908;-67
2023/03/05 07:01:46;;;;;;;;;;;;;;;;;;5074743;28;19999;-68
2023/03/05 07:04:12;;;;;;;;;;;;;;;;;;5074348;28;19993;-68
2023/03/05 07:06:38;;;;;;;;;;;;;;;;;;5075170;28;19962;-67
2023/03/05 07:09:04;;;;;;;;;;;;;;;;;;5073291;28;20003;-68
2023/03/05 07:11:30;;;;;;;;;;;;;;;;;;5074641;28;20769;-67
2023/03/05 07:13:56;;;;;;;;;;;;;;;;;;5072412;28;20269;-67
2023/03/05 07:16:22;;;;;;;;;;;;;;;;;;5073130;28;20006;-67
2023/03/05 07:18:48;;;;;;;;;;;;;;;;;;5072756;28;19908;-68
2023/03/05 07:21:14;;;;;;;;;;;;;;;;;;5073045;28;20364;-68
2023/03/05 07:23:40;;;;;;;;;;;;;;;;;;5074270;28;20331;-67
2023/03/05 07:26:05;;;;;;;;;;;;;;;;;;5074208;28;20322;-68
2023/03/05 07:28:31;;;;;;;;;;;;;;;;;;5074213;28;19932;-67
2023/03/05 07:30:57;;;;;;;;;;;;;;;;;;5074009;28;19909;-67
2023/03/05 07:33:23;;;;;;;;;;;;;;;;;;5073675;28;19908;-68
2023/03/05 07:35:49;;;;;;;;;;;;;;;;;;5074094;28;19915;-68
2023/03/05 07:38:15;;;;;;;;;;;;;;;;;;5074312;28;19909;-68
2023/03/05 07:40:41;;;;;;;;;;;;;;;;;;5073776;28;20015;-67
2023/03/05 07:43:07;;;;;;;;;;;;;;;;;;5073984;28;19916;-68
2023/03/05 07:45:33;;;;;;;;;;;;;;;;;;5073932;28;19944;-68
2023/03/05 07:47:59;;;;;;;;;;;;;;;;;;5073628;28;19908;-67
2023/03/05 07:50:25;;;;;;;;;;;;;;;;;;5073790;28;19920;-68
2023/03/05 07:52:51;;;;;;;;;;;;;;;;;;5073865;28;19917;-68
2023/03/05 07:55:17;;;;;;;;;;;;;;;;;;5072206;28;19912;-68
2023/03/05 07:57:43;;;;;;;;;;;;;;;;;;5073825;28;19908;-69
2023/03/05 08:00:09;;;;;;;;;;;;;;;;;;5074005;28;19913;-67
2023/03/05 08:02:35;;;;;;;;;;;;;;;;;;5073389;28;20258;-67
2023/03/05 08:05:01;;;;;;;;;;;;;;;;;;5073764;28;19931;-67
2023/03/05 08:07:27;;;;;;;;;;;;;;;;;;5073348;28;19966;-67
2023/03/05 08:09:53;;;;;;;;;;;;;;;;;;5073853;28;20356;-67
2023/03/05 08:12:19;;;;;;;;;;;;;;;;;;5072352;28;20011;-67
2023/03/05 08:14:46;;;;;;;;;;;;;;;;;;5073246;28;19909;-68
2023/03/05 08:17:12;;;;;;;;;;;;;;;;;;5073690;28;19915;-69
2023/03/05 08:19:38;;;;;;;;;;;;;;;;;;5073868;28;19909;-67
2023/03/05 08:22:04;;;;;;;;;;;;;;;;;;5073193;28;19917;-68
2023/03/05 08:24:30;;;;;;;;;;;;;;;;;;5075807;28;19908;-69
2023/03/05 08:26:56;;;;;;;;;;;;;;;;;;5077749;28;19908;-68
2023/03/05 08:29:22;;;;;;;;;;;;;;;;;;5077223;28;19963;-68
2023/03/05 08:31:48;;;;;;;;;;;;;;;;;;5077442;28;19931;-68
2023/03/05 08:34:14;;;;;;;;;;;;;;;;;;5077534;28;19936;-68
2023/03/05 08:36:40;;;;;;;;;;;;;;;;;;5076994;28;20309;-68
2023/03/05 08:39:07;;;;;;;;;;;;;;;;;;5077636;28;19912;-68
2023/03/05 08:41:33;;;;;;;;;;;;;;;;;;5077329;28;20276;-68
2023/03/05 08:43:59;;;;;;;;;;;;;;;;;;5077064;28;20003;-68
2023/03/05 08:46:25;;;;;;;;;;;;;;;;;;5077247;28;19961;-68
2023/03/05 08:48:51;;;;;;;;;;;;;;;;;;5077776;28;20345;-68
2023/03/05 08:51:17;;;;;;;;;;;;;;;;;;5076480;28;20281;-68
2023/03/05 08:53:43;;;;;;;;;;;;;;;;;;5077072;28;20288;-68
2023/03/05 08:56:09;;;;;;;;;;;;;;;;;;5076989;28;20268;-68
2023/03/05 08:58:35;;;;;;;;;;;;;;;;;;5076554;28;20321;-68
2023/03/05 09:01:01;;;;;;;;;;;;;;;;;;5076836;28;19908;-69
2023/03/05 09:03:27;;;;;;;;;;;;;;;;;;5075571;28;19919;-68
2023/03/05 09:05:53;;;;;;;;;;;;;;;;;;5076367;28;19908;-68
2023/03/05 09:08:19;;;;;;;;;;;;;;;;;;5076700;28;19917;-68
2023/03/05 09:10:45;;;;;;;;;;;;;;;;;;5075124;28;20357;-68
2023/03/05 09:13:11;;;;;;;;;;;;;;;;;;5075328;28;19960;-68
2023/03/05 09:15:36;;;;;;;;;;;;;;;;;;5075686;28;19912;-67
2023/03/05 09:18:02;;;;;;;;;;;;;;;;;;5076251;28;20003;-68
2023/03/05 09:20:28;;;;;;;;;;;;;;;;;;5075386;28;19915;-68
2023/03/05 09:22:54;;;;;;;;;;;;;;;;;;5076578;28;19912;-68
2023/03/05 09:25:21;;;;;;;;;;;;;;;;;;5076171;28;19991;-68
2023/03/05 09:27:47;;;;;;;;;;;;;;;;;;5075217;28;19912;-68
2023/03/05 09:30:13;;;;;;;;;;;;;;;;;;5076339;28;19909;-68
2023/03/05 09:32:39;;;;;;;;;;;;;;;;;;5076020;28;19916;-68
2023/03/05 09:35:05;;;;;;;;;;;;;;;;;;5075862;28;19966;-68
2023/03/05 09:37:31;;;;;;;;;;;;;;;;;;5075822;28;19909;-68
2023/03/05 09:39:57;;;;;;;;;;;;;;;;;;5074657;28;19912;-68
2023/03/05 09:42:23;;;;;;;;;;;;;;;;;;5074888;28;19908;-68
2023/03/05 09:44:49;;;;;;;;;;;;;;;;;;5076090;28;19940;-68
2023/03/05 09:47:15;;;;;;;;;;;;;;;;;;5075573;28;19916;-68
2023/03/05 09:49:41;;;;;;;;;;;;;;;;;;5075914;28;19909;-68
2023/03/05 09:52:07;;;;;;;;;;;;;;;;;;5076256;28;19924;-68
2023/03/05 09:54:32;;;;;;;;;;;;;;;;;;5075546;28;19967;-68
2023/03/05 09:56:58;;;;;;;;;;;;;;;;;;5075923;28;19944;-68
2023/03/05 09:59:26;;;;;;;;;;;;;;;;;;5075930;28;19908;-68
2023/03/05 10:01:52;;;;;;;;;;;;;;;;;;5075390;28;19915;-68
2023/03/05 10:04:18;;;;;;;;;;;;;;;;;;5076298;28;20269;-68
2023/03/05 10:06:44;;;;;;;;;;;;;;;;;;5075742;28;20295;-69
2023/03/05 10:09:10;;;;;;;;;;;;;;;;;;5075344;28;20336;-68
2023/03/05 10:11:36;;;;;;;;;;;;;;;;;;5074339;28;19934;-68
2023/03/05 10:14:01;;;;;;;;;;;;;;;;;;5075781;28;19909;-68
2023/03/05 10:16:27;;;;;;;;;;;;;;;;;;5075756;28;19916;-68
2023/03/05 10:18:53;;;;;;;;;;;;;;;;;;5075470;28;19969;-68
2023/03/05 10:21:20;;;;;;;;;;;;;;;;;;5075040;28;19909;-68
2023/03/05 10:23:46;;;;;;;;;;;;;;;;;;5074509;28;20406;-69
2023/03/05 10:26:12;;;;;;;;;;;;;;;;;;5075319;28;19909;-69
2023/03/05 10:30:50;;;;;;;;;;;;;;;;;;5112623;27;19916;-69
2023/03/05 10:33:51;;;;;;;;;;;;;;;;;;5112664;27;19916;-68
2023/03/05 10:37:33;;;;;;;;;;;;;;;;;;5112131;27;19916;-67
2023/03/05 10:39:59;;;;;;;;;;;;;;;;;;5111805;28;20002;-68
2023/03/05 10:44:02;;;;;;;;;;;;;;;;;;5173473;27;19915;-68
2023/03/05 10:46:53;;;;;;;;;;;;;;;;;;5051225;28;19917;-70
2023/03/05 10:50:08;;;;;;;;;;;;;;;;;;5173979;27;19911;-69
2023/03/05 10:52:58;;;;;;;;;;;;;;;;;;5092443;27;19916;-68
2023/03/05 10:55:24;;;;;;;;;;;;;;;;;;5090073;28;20423;-68
2023/03/05 10:59:56;;;;;;;;;;;;;;;;;;5092240;27;20360;-69
2023/03/05 11:02:22;;;;;;;;;;;;;;;;;;5091977;28;19995;-69
2023/03/05 11:04:48;;;;;;;;;;;;;;;;;;5089657;28;19909;-68
2023/03/05 11:07:14;;;;;;;;;;;;;;;;;;5090149;28;19915;-68
2023/03/05 11:09:40;;;;;;;;;;;;;;;;;;5089935;28;19958;-67
2023/03/05 11:12:09;;;;;;;;;;;;;;;;;;5089370;28;19968;-68
2023/03/05 11:14:36;;;;;;;;;;;;;;;;;;5091540;28;20292;-68
2023/03/05 11:17:02;;;;;;;;;;;;;;;;;;5089780;28;19909;-69
2023/03/05 11:19:28;;;;;;;;;;;;;;;;;;5090508;28;20387;-68
2023/03/05 11:21:54;;;;;;;;;;;;;;;;;;5089700;28;19916;-68
2023/03/05 11:24:20;;;;;;;;;;;;;;;;;;5089540;28;19909;-68
2023/03/05 11:26:47;;;;;;;;;;;;;;;;;;5089546;28;19919;-69
2023/03/05 11:29:12;;;;;;;;;;;;;;;;;;5090886;28;20053;-68
2023/03/05 11:31:38;;;;;;;;;;;;;;;;;;5088986;28;20413;-68
2023/03/05 11:34:04;;;;;;;;;;;;;;;;;;5090735;28;20360;-68
2023/03/05 11:36:30;;;;;;;;;;;;;;;;;;5091147;28;20368;-68
2023/03/05 11:38:56;;;;;;;;;;;;;;;;;;5088837;28;19926;-69
2023/03/05 11:41:22;;;;;;;;;;;;;;;;;;5090614;28;19908;-68
2023/03/05 11:43:48;;;;;;;;;;;;;;;;;;5090426;28;19995;-68
2023/03/05 11:46:15;;;;;;;;;;;;;;;;;;5088812;28;20008;-69
2023/03/05 11:48:41;;;;;;;;;;;;;;;;;;5090503;28;19915;-68
2023/03/05 11:51:07;;;;;;;;;;;;;;;;;;5090376;28;19920;-68
2023/03/05 11:53:34;;;;;;;;;;;;;;;;;;5088780;28;19908;-68
2023/03/05 11:56:00;;;;;;;;;;;;;;;;;;5090293;28;19944;-69
2023/03/05 11:58:26;;;;;;;;;;;;;;;;;;5098238;28;19966;-68
2023/03/05 12:00:52;;;;;;;;;;;;;;;;;;5110148;28;19908;-69
2023/03/05 12:03:18;;;;;;;;;;;;;;;;;;5092280;28;19908;-69
2023/03/05 12:05:44;;;;;;;;;;;;;;;;;;5092198;28;19908;-68
2023/03/05 12:08:10;;;;;;;;;;;;;;;;;;5091946;28;19994;-69
2023/03/05 12:10:36;;;;;;;;;;;;;;;;;;5101856;28;19918;-67
2023/03/05 12:13:02;;;;;;;;;;;;;;;;;;5096846;28;19908;-67
2023/03/05 12:15:28;;;;;;;;;;;;;;;;;;5078153;28;19915;-68
2023/03/05 12:17:54;;;;;;;;;;;;;;;;;;5096874;28;19919;-68
2023/03/05 12:20:20;;;;;;;;;;;;;;;;;;5078362;28;19916;-68
2023/03/05 12:22:46;;;;;;;;;;;;;;;;;;5096157;28;19912;-68
2023/03/05 12:25:12;;;;;;;;;;;;;;;;;;5096588;28;19912;-68
2023/03/05 12:27:38;;;;;;;;;;;;;;;;;;5096698;28;20015;-68
2023/03/05 12:30:04;;;;;;;;;;;;;;;;;;5096198;28;19908;-68
2023/03/05 12:32:30;;;;;;;;;;;;;;;;;;5096368;28;19931;-69
2023/03/05 12:34:56;;;;;;;;;;;;;;;;;;5095921;28;19934;-69
2023/03/05 12:37:22;;;;;;;;;;;;;;;;;;5096391;28;19908;-69
2023/03/05 12:39:51;;;;;;;;;;;;;;;;;;5096463;28;20116;-69
2023/03/05 12:42:17;;;;;;;;;;;;;;;;;;5096274;28;20003;-68
2023/03/05 12:44:43;;;;;;;;;;;;;;;;;;5096171;28;19963;-68
2023/03/05 12:47:09;;;;;;;;;;;;;;;;;;5096083;28;19934;-68
2023/03/05 12:49:35;;;;;;;;;;;;;;;;;;5095746;28;20048;-68
2023/03/05 12:52:01;;;;;;;;;;;;;;;;;;5095906;28;19931;-68
2023/03/05 12:54:27;;;;;;;;;;;;;;;;;;5095964;28;20003;-68
2023/03/05 12:56:53;;;;;;;;;;;;;;;;;;5077256;28;19954;-68
2023/03/05 12:59:19;;;;;;;;;;;;;;;;;;5077520;28;19920;-69
2023/03/05 13:01:45;;;;;;;;;;;;;;;;;;5077720;28;20008;-68
2023/03/05 13:04:13;;;;;;;;;;;;;;;;;;5095329;28;19908;-68
2023/03/05 13:06:39;;;;;;;;;;;;;;;;;;5095719;28;19952;-68
2023/03/05 13:09:05;;;;;;;;;;;;;;;;;;5095733;28;19908;-68
2023/03/05 13:11:33;;;;;;;;;;;;;;;;;;5095361;28;19916;-68
2023/03/05 13:13:59;;;;;;;;;;;;;;;;;;5077443;28;19931;-68
2023/03/05 13:16:24;;;;;;;;;;;;;;;;;;5095502;28;20360;-67
2023/03/05 13:18:50;;;;;;;;;;;;;;;;;;5076774;28;19966;-67
2023/03/05 13:21:16;;;;;;;;;;;;;;;;;;5094566;28;20281;-66
2023/03/05 13:23:42;;;;;;;;;;;;;;;;;;5095287;28;19934;-67
2023/03/05 13:26:08;;;;;;;;;;;;;;;;;;5094865;28;19908;-68
2023/03/05 13:28:36;;;;;;;;;;;;;;;;;;5095364;28;19912;-68
2023/03/05 13:31:02;;;;;;;;;;;;;;;;;;5076708;28;19943;-68
2023/03/05 13:33:28;;;;;;;;;;;;;;;;;;5095110;28;19908;-68
2023/03/05 13:35:54;;;;;;;;;;;;;;;;;;5095156;28;20372;-68
2023/03/05 13:38:20;;;;;;;;;;;;;;;;;;5076494;28;19920;-68
2023/03/05 13:40:46;;;;;;;;;;;;;;;;;;5077161;28;19919;-69
2023/03/05 13:43:12;;;;;;;;;;;;;;;;;;5076794;28;19909;-69
2023/03/05 13:48:40;;;;;;;;;;;;;;;;;;5111867;27;19919;-68
2023/03/05 13:51:55;;;;;;;;;;;;;;;;;;5112559;27;20381;-68
2023/03/05 13:54:22;;;;;;;;;;;;;;;;;;5111400;28;20002;-69
2023/03/05 13:56:48;;;;;;;;;;;;;;;;;;5111696;28;19990;-68
2023/03/05 14:06:43;;;;;;;;;;;;;;;;;;5153228;27;19911;-68
2023/03/05 14:09:09;;;;;;;;;;;;;;;;;;5152906;27;20260;-68
2023/03/05 14:11:35;;;;;;;;;;;;;;;;;;5134321;27;19907;-68
2023/03/05 14:14:01;;;;;;;;;;;;;;;;;;5152511;27;19907;-68
2023/03/05 14:16:56;;;;;;;;;;;;;;;;;;5112583;27;19916;-68
2023/03/05 14:19:22;;;;;;;;;;;;;;;;;;5111761;28;19999;-68
2023/03/05 14:27:28;;;;;;;;;;;;;;;;;;5144813;27;19916;-69
2023/03/05 14:30:49;;;;;;;;;;;;;;;;;;5091771;27;20013;-68
2023/03/05 14:35:38;;;;;;;;;;;;;;;;;;5091045;28;20291;-68
2023/03/05 14:43:39;;;;;;;;;;;;;;;;;;5132369;27;19922;-68
2023/03/05 14:46:05;;;;;;;;;;;;;;;;;;5132091;28;19912;-69
2023/03/05 14:56:19;;;;;;;;;;;;;;;;;;5111794;27;19912;-67
2023/03/05 15:01:21;;;;;;;;;;;;;;;;;;5112546;27;19922;-68
2023/03/05 15:03:57;;;;;;;;;;;;;;;;;;5091275;28;19917;-69
2023/03/05 15:06:23;;;;;;;;;;;;;;;;;;5091286;28;20003;-68
2023/03/05 15:08:49;;;;;;;;;;;;;;;;;;5090088;28;19954;-68
2023/03/05 15:11:15;;;;;;;;;;;;;;;;;;5090741;28;19962;-68
2023/03/05 15:13:41;;;;;;;;;;;;;;;;;;5091116;28;20376;-68
2023/03/05 15:16:07;;;;;;;;;;;;;;;;;;5089776;28;19912;-68
2023/03/05 15:20:58;;;;;;;;;;;;;;;;;;5112156;27;20414;-68
2023/03/05 15:23:24;;;;;;;;;;;;;;;;;;5111584;28;20003;-67
2023/03/05 15:25:50;;;;;;;;;;;;;;;;;;5109955;28;19947;-68
2023/03/05 15:28:16;;;;;;;;;;;;;;;;;;5111535;28;20378;-68
2023/03/05 15:30:42;;;;;;;;;;;;;;;;;;5109857;28;19931;-68
2023/03/05 15:33:08;;;;;;;;;;;;;;;;;;5111487;28;19912;-68
2023/03/05 15:35:34;;;;;;;;;;;;;;;;;;5111979;28;19908;-67
2023/03/05 15:38:00;;;;;;;;;;;;;;;;;;5109656;28;19931;-68
2023/03/05 15:40:26;;;;;;;;;;;;;;;;;;5111326;28;20065;-68
2023/03/05 15:42:52;;;;;;;;;;;;;;;;;;5111647;28;20352;-68
2023/03/05 15:45:18;;;;;;;;;;;;;;;;;;5111088;28;19916;-68
2023/03/05 15:47:44;;;;;;;;;;;;;;;;;;5109985;28;19915;-68
2023/03/05 15:50:10;;;;;;;;;;;;;;;;;;5111157;28;20313;-68
2023/03/05 15:52:36;;;;;;;;;;;;;;;;;;5109678;28;19908;-68
2023/03/05 15:55:02;;;;;;;;;;;;;;;;;;5109765;28;20002;-67
2023/03/05 15:57:28;;;;;;;;;;;;;;;;;;5111661;28;19912;-67
2023/03/05 15:59:54;;;;;;;;;;;;;;;;;;5110791;28;20359;-68
2023/03/05 16:02:20;;;;;;;;;;;;;;;;;;5110949;28;19953;-69
2023/03/05 16:04:46;;;;;;;;;;;;;;;;;;5109662;28;20367;-67
2023/03/05 16:07:12;;;;;;;;;;;;;;;;;;5110662;28;19987;-68
2023/03/05 16:09:38;;;;;;;;;;;;;;;;;;5111040;28;19912;-68
2023/03/05 16:12:04;;;;;;;;;;;;;;;;;;5109497;28;19947;-68
2023/03/05 16:14:30;;;;;;;;;;;;;;;;;;5108984;28;19908;-69
2023/03/05 16:16:56;;;;;;;;;;;;;;;;;;5109445;28;19965;-69
2023/03/05 16:19:21;;;;;;;;;;;;;;;;;;5110356;28;19919;-69
2023/03/05 16:21:47;;;;;;;;;;;;;;;;;;5108925;28;19965;-68
2023/03/05 16:24:13;;;;;;;;;;;;;;;;;;5109446;28;19908;-67
2023/03/05 16:26:39;;;;;;;;;;;;;;;;;;5111095;28;20426;-68
2023/03/05 16:29:05;;;;;;;;;;;;;;;;;;5110109;28;19951;-68
2023/03/05 16:31:32;;;;;;;;;;;;;;;;;;5101514;28;19944;-67
2023/03/05 16:33:58;;;;;;;;;;;;;;;;;;5096766;28;20006;-68
2023/03/05 16:36:24;;;;;;;;;;;;;;;;;;5097349;28;20007;-68
2023/03/05 16:38:50;;;;;;;;;;;;;;;;;;5096274;28;19912;-69
2023/03/05 16:41:16;;;;;;;;;;;;;;;;;;5096583;28;19920;-68
2023/03/05 16:43:43;;;;;;;;;;;;;;;;;;5095376;28;19994;-69
2023/03/05 16:46:08;;;;;;;;;;;;;;;;;;5096584;28;19961;-68
2023/03/05 16:48:36;;;;;;;;;;;;;;;;;;5096171;28;20003;-68
2023/03/05 16:51:01;;;;;;;;;;;;;;;;;;5096776;28;19909;-68
2023/03/05 16:53:27;;;;;;;;;;;;;;;;;;5095173;28;19912;-68
2023/03/05 16:55:53;;;;;;;;;;;;;;;;;;5096145;28;19917;-68
2023/03/05 16:58:19;;;;;;;;;;;;;;;;;;5096503;28;20003;-69
2023/03/05 17:00:45;;;;;;;;;;;;;;;;;;5096229;28;19927;-69
2023/03/05 17:03:11;;;;;;;;;;;;;;;;;;5095905;28;19908;-68
2023/03/05 17:05:37;;;;;;;;;;;;;;;;;;5094954;28;19908;-68
2023/03/05 17:08:03;;;;;;;;;;;;;;;;;;5096175;28;20315;-69
2023/03/05 17:10:29;;;;;;;;;;;;;;;;;;5095771;28;19908;-69
2023/03/05 17:12:55;;;;;;;;;;;;;;;;;;5096143;28;20292;-69
2023/03/05 17:15:21;;;;;;;;;;;;;;;;;;5096046;28;19912;-68
2023/03/05 17:17:47;;;;;;;;;;;;;;;;;;5094331;28;20368;-69
2023/03/05 17:20:13;;;;;;;;;;;;;;;;;;5095623;28;20335;-68
2023/03/05 17:22:39;;;;;;;;;;;;;;;;;;5094604;28;19924;-68
2023/03/05 17:25:05;;;;;;;;;;;;;;;;;;5095421;28;19908;-68